This is the latest recevied weather packets stored in our database for station/object FW1079. If no packets are shown the sender has not sent any weather packets the latest 10 day(s).
| Time | Temp. | Humidity | Pressure | Rain* | Wind** | Luminosity | Snow |
|---|---|---|---|---|---|---|---|
| 1777931663 | 12.22° C | 81% | 1017 hPa | 0 mm | - | - | - |
| 1777931064 | 12.78° C | 81% | 1018 hPa | 0 mm | - | - | - |
| 1777927164 | 13.33° C | 83% | 1018 hPa | 0 mm | - | - | - |
| 1777924463 | 13.89° C | 82% | 1017 hPa | 0 mm | - | - | - |
| 1777922063 | 14.44° C | 78% | 1017 hPa | 0 mm | - | - | - |
| 1777921463 | 15° C | 77% | 1017 hPa | 0 mm | - | - | - |
| 1777921164 | 15.56° C | 77% | 1017 hPa | 0 mm | - | - | - |
| 1777920263 | 16.11° C | 72% | 1017 hPa | 0 mm | - | - | - |
| 1777916666 | 18.33° C | 63% | 1017 hPa | 0 mm | - | - | - |
| 1777914263 | 18.89° C | 58% | 1017 hPa | 0 mm | - | - | - |
| 1777913363 | 18.89° C | 57% | 1017 hPa | 0 mm | - | - | - |
| 1777911862 | 19.44° C | 55% | 1017 hPa | 0 mm | - | - | - |
| 1777910965 | 19.44° C | 55% | 1017 hPa | 0 mm | - | - | - |
| 1777910663 | 20° C | 55% | 1017 hPa | 0 mm | - | - | - |
| 1777909766 | 20° C | 54% | 1017 hPa | 0 mm | - | - | - |
| 1777908562 | 20.56° C | 54% | 1017 hPa | 0 mm | - | - | - |
| 1777908265 | 20.56° C | 54% | 1017 hPa | 0 mm | - | - | - |
| 1777907365 | 21.11° C | 53% | 1016 hPa | 0 mm | - | - | - |
| 1777907062 | 21.11° C | 53% | 1016 hPa | 0 mm | - | - | - |
| 1777905862 | 21.11° C | 52% | 1017 hPa | 0 mm | - | - | - |
| 1777903765 | 21.11° C | 52% | 1017 hPa | 0 mm | - | - | - |
| 1777902563 | 21.67° C | 52% | 1017 hPa | 0 mm | - | - | - |
| 1777901662 | 21.67° C | 52% | 1017 hPa | 0 mm | - | - | - |
| 1777899262 | 21.67° C | 53% | 1018 hPa | 0 mm | - | - | - |
| 1777897463 | 21.67° C | 53% | 1018 hPa | 0 mm | - | - | - |
* Rain latest hour (hover to see other rain measurements)
** Current wind speed in m/s (hover to see current wind gust speed)